Time;durP1;ratioP1;P1;durP2;ratioP2;P2;SDS_P1;SDS_P2;PMS_P1;PMS_P2;Temp;Humidity;BMP_temperature;BMP_pressure;BME280_temperature;BME280_humidity;BME280_pressure;Samples;Min_cycle;Max_cycle;Signal;HPM_P1;HPM_P2
2022/10/09 00:00:29;;;;;;;17.47;6.60;;;;;;;;;;5032032;28;20173;-73
2022/10/09 00:02:54;;;;;;;12.53;6.57;;;;;;;;;;5031404;28;20675;-73
2022/10/09 00:05:22;;;;;;;13.70;6.77;;;;;;;;;;5030848;28;20177;-73
2022/10/09 00:07:47;;;;;;;11.93;7.20;;;;;;;;;;5014036;28;20162;-73
2022/10/09 00:10:12;;;;;;;12.77;6.27;;;;;;;;;;5030115;28;20181;-74
2022/10/09 00:12:37;;;;;;;11.70;6.73;;;;;;;;;;5013102;28;20198;-73
2022/10/09 00:15:03;;;;;;;9.33;5.73;;;;;;;;;;5031188;28;20273;-73
2022/10/09 00:17:29;;;;;;;15.43;6.57;;;;;;;;;;5025565;28;20237;-74
2022/10/09 00:19:55;;;;;;;12.53;6.10;;;;;;;;;;5013727;28;20261;-74
2022/10/09 00:22:20;;;;;;;10.47;6.63;;;;;;;;;;5031275;28;20209;-73
2022/10/09 00:24:45;;;;;;;14.90;6.60;;;;;;;;;;5030394;28;20202;-74
2022/10/09 00:27:10;;;;;;;12.27;6.87;;;;;;;;;;5031579;28;20171;-74
2022/10/09 00:29:35;;;;;;;11.33;6.47;;;;;;;;;;5031844;28;20158;-74
2022/10/09 00:32:00;;;;;;;11.90;6.80;;;;;;;;;;5013674;28;20166;-74
2022/10/09 00:34:26;;;;;;;11.33;6.83;;;;;;;;;;5031366;28;20194;-74
2022/10/09 00:36:51;;;;;;;8.67;6.17;;;;;;;;;;5029896;28;20178;-72
2022/10/09 00:39:16;;;;;;;12.23;6.10;;;;;;;;;;5031258;28;20177;-74
2022/10/09 00:41:41;;;;;;;11.00;6.37;;;;;;;;;;5030594;28;20770;-74
2022/10/09 00:44:25;;;;;;;12.63;6.07;;;;;;;;;;5027424;28;20208;-74
2022/10/09 00:46:51;;;;;;;11.47;5.37;;;;;;;;;;5026847;28;20174;-74
2022/10/09 00:49:32;;;;;;;8.07;5.20;;;;;;;;;;5012780;28;20174;-73
2022/10/09 00:51:58;;;;;;;9.57;4.77;;;;;;;;;;5023651;28;20175;-73
2022/10/09 00:54:26;;;;;;;9.77;6.27;;;;;;;;;;5031173;28;20202;-74
2022/10/09 00:56:51;;;;;;;8.13;4.90;;;;;;;;;;5028948;28;20186;-74
2022/10/09 00:59:17;;;;;;;8.23;4.87;;;;;;;;;;5030165;28;20189;-72
2022/10/09 01:01:42;;;;;;;8.73;4.77;;;;;;;;;;5011738;28;20265;-74
2022/10/09 01:04:07;;;;;;;8.43;4.20;;;;;;;;;;5030859;28;20197;-72
2022/10/09 01:06:47;;;;;;;7.90;5.00;;;;;;;;;;5031339;28;20545;-74
2022/10/09 01:09:14;;;;;;;6.83;4.60;;;;;;;;;;5011996;28;20182;-71
2022/10/09 01:11:39;;;;;;;7.67;4.80;;;;;;;;;;5021690;28;20178;-74
2022/10/09 01:14:31;;;;;;;8.50;5.10;;;;;;;;;;5029077;28;20255;-74
2022/10/09 01:17:04;;;;;;;12.27;4.77;;;;;;;;;;5023842;28;20664;-74
2022/10/09 01:19:46;;;;;;;8.10;4.70;;;;;;;;;;5012895;28;20174;-74
2022/10/09 01:22:41;;;;;;;9.47;4.60;;;;;;;;;;5009028;28;20174;-74
2022/10/09 01:25:38;;;;;;;5.33;4.17;;;;;;;;;;4978329;28;20216;-74
2022/10/09 01:28:05;;;;;;;9.20;4.03;;;;;;;;;;4961308;28;20179;-74
2022/10/09 01:30:31;;;;;;;7.83;5.03;;;;;;;;;;4997217;28;20253;-73
2022/10/09 01:32:57;;;;;;;7.30;5.10;;;;;;;;;;5014895;28;20241;-73
2022/10/09 01:35:22;;;;;;;11.03;5.10;;;;;;;;;;5029601;28;20187;-73
2022/10/09 01:37:49;;;;;;;8.87;5.83;;;;;;;;;;5034749;28;20722;-71
2022/10/09 01:40:16;;;;;;;6.93;5.20;;;;;;;;;;5033020;28;20206;-74
2022/10/09 01:42:41;;;;;;;7.07;5.03;;;;;;;;;;5033992;28;20621;-74
2022/10/09 01:45:07;;;;;;;6.80;5.10;;;;;;;;;;5034405;28;20293;-73
2022/10/09 01:47:32;;;;;;;9.40;5.33;;;;;;;;;;5033654;28;20244;-74
2022/10/09 01:50:05;;;;;;;7.90;5.33;;;;;;;;;;5016414;28;20249;-73
2022/10/09 01:52:36;;;;;;;10.33;5.37;;;;;;;;;;5034309;28;20190;-74
2022/10/09 01:55:04;;;;;;;5.97;4.80;;;;;;;;;;5034720;28;20162;-72
2022/10/09 01:57:35;;;;;;;7.67;5.00;;;;;;;;;;5028917;28;20224;-72
2022/10/09 02:00:02;;;;;;;10.17;5.40;;;;;;;;;;5034130;28;20201;-72
2022/10/09 02:02:27;;;;;;;7.77;5.17;;;;;;;;;;5033645;28;20691;-72
2022/10/09 02:04:52;;;;;;;8.83;5.43;;;;;;;;;;5034014;28;20205;-74
2022/10/09 02:07:18;;;;;;;9.13;5.10;;;;;;;;;;5034356;28;20174;-74
2022/10/09 02:09:44;;;;;;;9.77;5.17;;;;;;;;;;5033306;28;20174;-74
2022/10/09 02:12:10;;;;;;;12.77;6.33;;;;;;;;;;5033730;28;20162;-74
2022/10/09 02:14:35;;;;;;;14.10;7.97;;;;;;;;;;5016007;28;20174;-72
2022/10/09 02:17:07;;;;;;;9.40;5.10;;;;;;;;;;5016411;28;20246;-74
2022/10/09 02:19:52;;;;;;;9.33;4.87;;;;;;;;;;5033958;28;20574;-74
2022/10/09 02:22:20;;;;;;;6.43;4.90;;;;;;;;;;5015332;28;20186;-73
2022/10/09 02:24:46;;;;;;;9.43;5.03;;;;;;;;;;5014017;28;20209;-73
2022/10/09 02:27:12;;;;;;;9.70;5.73;;;;;;;;;;5015054;28;20171;-74
2022/10/09 02:29:41;;;;;;;8.03;4.87;;;;;;;;;;5014660;28;20596;-74
2022/10/09 02:32:06;;;;;;;8.10;4.87;;;;;;;;;;5032356;28;20174;-74
2022/10/09 02:34:32;;;;;;;7.10;5.57;;;;;;;;;;5031500;28;20292;-74
2022/10/09 02:36:57;;;;;;;10.10;4.73;;;;;;;;;;5029981;28;20171;-75
2022/10/09 02:39:22;;;;;;;8.00;5.27;;;;;;;;;;5032513;28;20220;-73
2022/10/09 02:41:47;;;;;;;8.53;5.60;;;;;;;;;;5031636;28;20172;-73
2022/10/09 02:44:12;;;;;;;7.60;5.00;;;;;;;;;;5032572;28;20202;-73
2022/10/09 02:46:38;;;;;;;9.77;5.43;;;;;;;;;;5032454;28;20171;-73
2022/10/09 02:49:03;;;;;;;10.37;5.13;;;;;;;;;;5032708;28;20190;-73
2022/10/09 02:51:29;;;;;;;8.80;4.93;;;;;;;;;;5025227;28;20182;-73
2022/10/09 02:53:54;;;;;;;8.80;5.27;;;;;;;;;;5032730;28;20201;-73
2022/10/09 02:56:20;;;;;;;7.00;4.90;;;;;;;;;;5032176;28;20617;-73
2022/10/09 02:58:45;;;;;;;7.40;5.33;;;;;;;;;;5032413;28;20175;-73
2022/10/09 03:01:11;;;;;;;7.20;5.43;;;;;;;;;;5030130;28;20180;-73
2022/10/09 03:03:36;;;;;;;10.53;5.87;;;;;;;;;;5012178;28;20206;-73
2022/10/09 03:06:08;;;;;;;8.77;4.77;;;;;;;;;;5032415;28;20276;-73
2022/10/09 03:08:33;;;;;;;7.77;5.40;;;;;;;;;;5032053;28;20193;-73
2022/10/09 03:10:58;;;;;;;14.77;6.47;;;;;;;;;;5031643;28;20616;-73
2022/10/09 03:13:23;;;;;;;9.20;5.87;;;;;;;;;;5032161;28;20202;-73
2022/10/09 03:15:48;;;;;;;8.77;5.03;;;;;;;;;;5013500;28;20200;-73
2022/10/09 03:18:14;;;;;;;10.37;6.00;;;;;;;;;;5031837;28;20167;-73
2022/10/09 03:20:39;;;;;;;9.87;5.77;;;;;;;;;;5031807;28;20200;-73
2022/10/09 03:23:04;;;;;;;8.63;5.20;;;;;;;;;;5031619;28;20193;-72
2022/10/09 03:25:29;;;;;;;10.87;5.43;;;;;;;;;;4995322;28;1065866;-73
2022/10/09 03:27:55;;;;;;;15.67;6.40;;;;;;;;;;5014077;28;20175;-71
2022/10/09 03:30:20;;;;;;;12.67;6.03;;;;;;;;;;5032663;28;20186;-71
2022/10/09 03:32:45;;;;;;;9.23;5.37;;;;;;;;;;5032318;28;20706;-71
2022/10/09 03:35:10;;;;;;;9.37;5.57;;;;;;;;;;5032592;28;20174;-71
2022/10/09 03:37:35;;;;;;;9.80;5.90;;;;;;;;;;5032657;28;20174;-71
2022/10/09 03:40:01;;;;;;;11.10;6.10;;;;;;;;;;5031575;28;20655;-71
2022/10/09 03:42:26;;;;;;;10.33;6.37;;;;;;;;;;5031579;28;20194;-71
2022/10/09 03:44:51;;;;;;;8.87;6.17;;;;;;;;;;5032146;28;20209;-71
2022/10/09 03:47:16;;;;;;;11.20;5.97;;;;;;;;;;5032033;28;20178;-70
2022/10/09 03:49:41;;;;;;;11.70;6.47;;;;;;;;;;5032430;28;20167;-71
2022/10/09 03:52:07;;;;;;;11.70;6.60;;;;;;;;;;5013960;28;20174;-71
2022/10/09 03:54:32;;;;;;;10.27;6.17;;;;;;;;;;5032331;28;20177;-71
2022/10/09 03:56:57;;;;;;;9.73;5.73;;;;;;;;;;5029726;28;20262;-71
2022/10/09 03:59:22;;;;;;;12.13;6.30;;;;;;;;;;5032232;28;20174;-71
2022/10/09 04:01:47;;;;;;;11.03;6.57;;;;;;;;;;5031716;28;20281;-71
2022/10/09 04:04:13;;;;;;;9.67;6.57;;;;;;;;;;5032323;28;20204;-71
2022/10/09 04:06:38;;;;;;;14.67;7.03;;;;;;;;;;5032305;28;20174;-71
2022/10/09 04:09:03;;;;;;;11.97;6.40;;;;;;;;;;5029975;28;20539;-71
2022/10/09 04:11:28;;;;;;;12.63;6.23;;;;;;;;;;5031488;28;20253;-71
2022/10/09 04:13:54;;;;;;;10.43;6.37;;;;;;;;;;5031994;28;20281;-71
2022/10/09 04:16:19;;;;;;;13.83;6.37;;;;;;;;;;5030578;28;20214;-71
2022/10/09 04:18:44;;;;;;;12.90;7.00;;;;;;;;;;5031846;28;20640;-71
2022/10/09 04:21:09;;;;;;;9.40;6.47;;;;;;;;;;5031535;28;20193;-71
2022/10/09 04:23:34;;;;;;;15.47;6.97;;;;;;;;;;5012929;28;20201;-71
2022/10/09 04:26:00;;;;;;;14.17;6.50;;;;;;;;;;5031455;28;20181;-71
2022/10/09 04:28:26;;;;;;;14.73;7.40;;;;;;;;;;5031621;28;20170;-71
2022/10/09 04:30:51;;;;;;;11.60;7.03;;;;;;;;;;5030514;28;20175;-71
2022/10/09 04:33:16;;;;;;;11.20;7.23;;;;;;;;;;5031506;28;20220;-71
2022/10/09 04:35:42;;;;;;;11.80;7.67;;;;;;;;;;5031537;28;20293;-71
2022/10/09 04:38:07;;;;;;;15.63;7.83;;;;;;;;;;5031050;28;20631;-71
2022/10/09 04:40:32;;;;;;;11.77;6.80;;;;;;;;;;5031392;28;20170;-71
2022/10/09 04:42:57;;;;;;;18.43;7.87;;;;;;;;;;5030686;28;20190;-71
2022/10/09 04:45:23;;;;;;;8.90;6.63;;;;;;;;;;5031291;28;20281;-71
2022/10/09 04:47:48;;;;;;;10.20;6.07;;;;;;;;;;5026199;28;20232;-71
2022/10/09 04:50:14;;;;;;;12.73;7.20;;;;;;;;;;5021989;28;20236;-71
2022/10/09 04:52:39;;;;;;;14.20;8.37;;;;;;;;;;5025089;28;20566;-71
2022/10/09 04:55:04;;;;;;;15.47;7.50;;;;;;;;;;5031286;28;20167;-71
2022/10/09 04:57:30;;;;;;;14.20;8.10;;;;;;;;;;5032261;28;20177;-71
2022/10/09 04:59:55;;;;;;;13.63;7.23;;;;;;;;;;5035488;28;20524;-70
2022/10/09 05:02:20;;;;;;;13.17;7.10;;;;;;;;;;5031950;28;20186;-71
2022/10/09 05:04:45;;;;;;;10.80;7.03;;;;;;;;;;5035090;28;20201;-71
2022/10/09 05:07:10;;;;;;;14.07;8.93;;;;;;;;;;5035232;28;20601;-71
2022/10/09 05:09:35;;;;;;;18.07;7.90;;;;;;;;;;5035491;28;20166;-71
2022/10/09 05:12:01;;;;;;;11.80;7.13;;;;;;;;;;5034829;28;20314;-71
2022/10/09 05:14:26;;;;;;;16.50;7.77;;;;;;;;;;5034953;28;20221;-71
2022/10/09 05:16:51;;;;;;;17.57;7.70;;;;;;;;;;5032076;28;20204;-71
2022/10/09 05:19:16;;;;;;;12.33;8.17;;;;;;;;;;5034665;28;20178;-71
2022/10/09 05:21:42;;;;;;;19.30;7.13;;;;;;;;;;5034292;28;20632;-71
2022/10/09 05:24:07;;;;;;;11.47;6.57;;;;;;;;;;5016790;28;20638;-71
2022/10/09 05:26:32;;;;;;;18.70;8.03;;;;;;;;;;5034590;28;20202;-71
2022/10/09 05:28:57;;;;;;;12.27;7.33;;;;;;;;;;5032517;28;20187;-71
2022/10/09 05:31:24;;;;;;;15.83;7.40;;;;;;;;;;5032658;28;20216;-71
2022/10/09 05:33:49;;;;;;;11.30;7.20;;;;;;;;;;5031663;28;20209;-71
2022/10/09 05:36:15;;;;;;;15.83;7.30;;;;;;;;;;5032288;28;20182;-71
2022/10/09 05:38:40;;;;;;;14.47;7.57;;;;;;;;;;5032164;28;20178;-71
2022/10/09 05:41:06;;;;;;;14.33;9.10;;;;;;;;;;5034436;28;20241;-71
2022/10/09 05:43:33;;;;;;;16.97;7.70;;;;;;;;;;5034018;28;20196;-71
2022/10/09 05:46:24;;;;;;;17.40;7.80;;;;;;;;;;5016133;28;20170;-71
2022/10/09 05:48:59;;;;;;;12.57;6.53;;;;;;;;;;5025208;28;20202;-70
2022/10/09 05:51:28;;;;;;;12.33;7.27;;;;;;;;;;5033495;28;20213;-72
2022/10/09 05:53:54;;;;;;;13.17;7.60;;;;;;;;;;5015110;28;20206;-71
2022/10/09 05:56:26;;;;;;;12.43;8.13;;;;;;;;;;5033302;28;20185;-71
2022/10/09 05:58:56;;;;;;;10.67;7.30;;;;;;;;;;5033298;28;20182;-71
2022/10/09 06:01:22;;;;;;;13.17;6.20;;;;;;;;;;5031725;28;20690;-71
2022/10/09 06:03:49;;;;;;;13.00;7.30;;;;;;;;;;5028608;28;20206;-71
2022/10/09 06:06:15;;;;;;;12.93;6.80;;;;;;;;;;5034064;28;20217;-71
2022/10/09 06:08:40;;;;;;;16.23;6.93;;;;;;;;;;5015341;28;20194;-71
2022/10/09 06:11:11;;;;;;;15.33;7.20;;;;;;;;;;5033853;28;20166;-71
2022/10/09 06:13:36;;;;;;;14.17;6.97;;;;;;;;;;5014275;28;20226;-71
2022/10/09 06:16:02;;;;;;;15.13;8.07;;;;;;;;;;5022653;28;20206;-71
2022/10/09 06:18:27;;;;;;;12.03;7.37;;;;;;;;;;5026418;28;20239;-71
2022/10/09 06:20:53;;;;;;;15.90;7.50;;;;;;;;;;5033952;28;20182;-71
2022/10/09 06:23:18;;;;;;;16.80;6.83;;;;;;;;;;5033898;28;20205;-71
2022/10/09 06:25:51;;;;;;;12.03;7.63;;;;;;;;;;5033893;28;20187;-71
2022/10/09 06:28:16;;;;;;;14.00;6.73;;;;;;;;;;5016223;28;20249;-71
2022/10/09 06:30:41;;;;;;;12.33;6.60;;;;;;;;;;5016006;28;20270;-71
2022/10/09 06:33:06;;;;;;;14.20;7.70;;;;;;;;;;5033242;28;20555;-71
2022/10/09 06:35:33;;;;;;;14.17;7.03;;;;;;;;;;5034018;28;20233;-71
2022/10/09 06:37:58;;;;;;;11.10;6.97;;;;;;;;;;5033745;28;20162;-71
2022/10/09 06:40:23;;;;;;;13.57;6.97;;;;;;;;;;5033128;28;20692;-71
2022/10/09 06:42:48;;;;;;;13.00;7.93;;;;;;;;;;5032103;28;20272;-71
2022/10/09 06:45:14;;;;;;;10.57;7.33;;;;;;;;;;5033322;28;20220;-71
2022/10/09 06:47:39;;;;;;;13.63;8.97;;;;;;;;;;5033416;28;20174;-71
2022/10/09 06:50:04;;;;;;;16.23;8.80;;;;;;;;;;5015805;28;20551;-71
2022/10/09 06:52:29;;;;;;;18.97;10.07;;;;;;;;;;5032907;28;20197;-71
2022/10/09 06:54:55;;;;;;;19.50;9.67;;;;;;;;;;5033525;28;20192;-71
2022/10/09 06:57:20;;;;;;;19.33;10.30;;;;;;;;;;5030888;28;20190;-71
2022/10/09 06:59:48;;;;;;;18.03;10.50;;;;;;;;;;5033272;28;20190;-71
2022/10/09 07:02:14;;;;;;;19.90;10.70;;;;;;;;;;5015136;28;20186;-71
2022/10/09 07:04:39;;;;;;;23.90;12.23;;;;;;;;;;5015257;28;20209;-71
2022/10/09 07:07:04;;;;;;;19.00;11.33;;;;;;;;;;5033021;28;20173;-71
2022/10/09 07:09:30;;;;;;;22.27;12.03;;;;;;;;;;5033049;28;20181;-71
2022/10/09 07:11:55;;;;;;;34.77;13.33;;;;;;;;;;5030074;28;20174;-71
2022/10/09 07:14:20;;;;;;;18.53;11.70;;;;;;;;;;5032818;28;20206;-71
2022/10/09 07:16:47;;;;;;;19.57;13.10;;;;;;;;;;5033169;28;20591;-71
2022/10/09 07:19:13;;;;;;;25.97;12.57;;;;;;;;;;5032864;28;20273;-73
2022/10/09 07:21:39;;;;;;;19.20;11.43;;;;;;;;;;5031747;28;20695;-72
2022/10/09 07:24:04;;;;;;;20.43;11.60;;;;;;;;;;5014091;28;20214;-72
2022/10/09 07:26:32;;;;;;;17.50;10.40;;;;;;;;;;5032936;28;20511;-72
2022/10/09 07:28:57;;;;;;;16.10;9.77;;;;;;;;;;5032678;28;20170;-71
2022/10/09 07:31:22;;;;;;;21.83;10.00;;;;;;;;;;5032839;28;20363;-71
2022/10/09 07:33:49;;;;;;;18.37;9.47;;;;;;;;;;5032390;28;20269;-72
2022/10/09 07:36:14;;;;;;;17.73;9.23;;;;;;;;;;5014872;28;20174;-71
2022/10/09 07:38:39;;;;;;;14.03;8.07;;;;;;;;;;5031368;28;20178;-72
2022/10/09 07:41:09;;;;;;;13.30;8.10;;;;;;;;;;5032148;28;20668;-72
2022/10/09 07:43:35;;;;;;;15.20;7.30;;;;;;;;;;5032377;28;20286;-72
2022/10/09 07:46:00;;;;;;;13.43;6.43;;;;;;;;;;5032239;28;20638;-71
2022/10/09 07:48:26;;;;;;;13.57;6.53;;;;;;;;;;5032426;28;20184;-72
2022/10/09 07:50:52;;;;;;;10.10;5.63;;;;;;;;;;5031285;28;20651;-72
2022/10/09 07:53:17;;;;;;;10.10;5.60;;;;;;;;;;5028637;28;20202;-71
2022/10/09 07:55:46;;;;;;;10.10;5.33;;;;;;;;;;5031330;28;20186;-72
2022/10/09 07:58:12;;;;;;;7.77;4.83;;;;;;;;;;5031117;28;20180;-72
2022/10/09 08:00:37;;;;;;;9.37;4.30;;;;;;;;;;5031878;28;20175;-72
2022/10/09 08:03:02;;;;;;;8.40;3.90;;;;;;;;;;5032387;28;20219;-71
2022/10/09 08:05:27;;;;;;;10.13;4.27;;;;;;;;;;5031202;28;20260;-71
2022/10/09 08:07:53;;;;;;;5.03;3.83;;;;;;;;;;5028627;28;20180;-72
2022/10/09 08:10:18;;;;;;;9.93;4.40;;;;;;;;;;5031607;28;20659;-72
2022/10/09 08:12:43;;;;;;;6.80;3.83;;;;;;;;;;5031713;28;20204;-71
2022/10/09 08:15:08;;;;;;;7.10;4.30;;;;;;;;;;5031103;28;20189;-71
2022/10/09 08:17:33;;;;;;;13.10;4.18;;;;;;;;;;5031930;28;20174;-72
2022/10/09 08:19:59;;;;;;;5.40;3.72;;;;;;;;;;5031826;28;20190;-71
2022/10/09 08:22:24;;;;;;;8.57;3.88;;;;;;;;;;5030707;28;20185;-71
2022/10/09 08:24:50;;;;;;;5.30;3.45;;;;;;;;;;5013662;28;20232;-71
2022/10/09 08:27:15;;;;;;;5.88;3.15;;;;;;;;;;5031839;28;20174;-71
2022/10/09 08:29:40;;;;;;;7.63;3.28;;;;;;;;;;5031755;28;20172;-71
2022/10/09 08:32:05;;;;;;;7.93;3.22;;;;;;;;;;5030534;28;20188;-71
2022/10/09 08:34:31;;;;;;;4.93;2.92;;;;;;;;;;5031057;28;20209;-71
2022/10/09 08:36:56;;;;;;;10.95;3.33;;;;;;;;;;5031542;28;20175;-71
2022/10/09 08:39:21;;;;;;;5.85;3.17;;;;;;;;;;5031579;28;20257;-71
2022/10/09 08:41:53;;;;;;;6.90;3.30;;;;;;;;;;5031297;28;20216;-72
2022/10/09 08:44:39;;;;;;;6.47;3.40;;;;;;;;;;5031231;28;20213;-72
2022/10/09 08:47:22;;;;;;;9.13;3.28;;;;;;;;;;5029983;28;20181;-72
2022/10/09 08:49:53;;;;;;;5.90;3.25;;;;;;;;;;5011720;28;20253;-69
2022/10/09 08:52:41;;;;;;;5.57;3.10;;;;;;;;;;5023202;28;20229;-72
2022/10/09 08:55:15;;;;;;;5.13;3.78;;;;;;;;;;5031213;28;20189;-72
2022/10/09 08:57:41;;;;;;;5.03;2.85;;;;;;;;;;5029191;28;20667;-69
2022/10/09 09:00:15;;;;;;;7.28;3.10;;;;;;;;;;5031203;28;20309;-72
2022/10/09 09:02:41;;;;;;;9.32;2.97;;;;;;;;;;5031004;28;20212;-72
2022/10/09 09:05:18;;;;;;;7.65;2.63;;;;;;;;;;5031199;28;20731;-72
2022/10/09 09:08:07;;;;;;;6.18;2.58;;;;;;;;;;5031217;28;20170;-72
2022/10/09 09:10:54;;;;;;;6.95;3.00;;;;;;;;;;5029806;28;20673;-72
2022/10/09 09:13:43;;;;;;;5.82;3.65;;;;;;;;;;5031340;28;20196;-72
2022/10/09 09:16:24;;;;;;;5.82;2.72;;;;;;;;;;5013403;28;20249;-72
2022/10/09 09:19:01;;;;;;;8.57;3.17;;;;;;;;;;5031497;28;20640;-72
2022/10/09 09:21:32;;;;;;;6.55;2.88;;;;;;;;;;5030760;28;20660;-72
2022/10/09 09:23:59;;;;;;;8.55;2.95;;;;;;;;;;5030199;28;20708;-73
2022/10/09 09:26:25;;;;;;;6.20;2.58;;;;;;;;;;5030814;28;20170;-73
2022/10/09 09:28:53;;;;;;;5.88;2.95;;;;;;;;;;5031630;28;20198;-73
2022/10/09 09:31:24;;;;;;;8.13;3.40;;;;;;;;;;5030617;28;20660;-73
2022/10/09 09:33:52;;;;;;;7.57;3.42;;;;;;;;;;5031241;28;20198;-72
2022/10/09 09:36:20;;;;;;;9.02;3.15;;;;;;;;;;5030902;28;20186;-72
2022/10/09 09:38:47;;;;;;;7.45;2.80;;;;;;;;;;5028296;28;20183;-72
2022/10/09 09:41:12;;;;;;;9.13;3.10;;;;;;;;;;5026485;28;20205;-72
2022/10/09 09:43:37;;;;;;;6.55;2.67;;;;;;;;;;5031931;28;20238;-72
2022/10/09 09:46:08;;;;;;;5.38;2.38;;;;;;;;;;5034672;28;20178;-72
2022/10/09 09:48:35;;;;;;;5.25;2.30;;;;;;;;;;5034792;28;20181;-72
2022/10/09 09:51:02;;;;;;;5.85;2.35;;;;;;;;;;5034305;28;20534;-73
2022/10/09 09:53:29;;;;;;;4.00;2.22;;;;;;;;;;5026522;28;20207;-73
2022/10/09 09:55:54;;;;;;;5.30;3.28;;;;;;;;;;5031801;28;20220;-71
2022/10/09 09:58:20;;;;;;;7.03;3.35;;;;;;;;;;5034420;28;20542;-72
2022/10/09 10:00:56;;;;;;;4.50;2.42;;;;;;;;;;5016544;28;20581;-71
2022/10/09 10:03:21;;;;;;;8.43;2.75;;;;;;;;;;5033910;28;20197;-71
2022/10/09 10:05:46;;;;;;;4.75;2.80;;;;;;;;;;5016695;28;20174;-71
2022/10/09 10:08:13;;;;;;;5.68;2.33;;;;;;;;;;5016494;28;20278;-71
2022/10/09 10:10:42;;;;;;;6.13;2.20;;;;;;;;;;5031780;28;20181;-72
2022/10/09 10:13:13;;;;;;;5.15;2.60;;;;;;;;;;5032885;28;20273;-72
2022/10/09 10:15:45;;;;;;;5.32;2.63;;;;;;;;;;5033910;28;20182;-72
2022/10/09 10:18:15;;;;;;;6.97;2.90;;;;;;;;;;5016807;28;20170;-71
2022/10/09 10:20:48;;;;;;;5.65;2.63;;;;;;;;;;5032959;28;20178;-72
2022/10/09 10:23:39;;;;;;;8.15;3.00;;;;;;;;;;5033926;28;20252;-72
2022/10/09 10:26:23;;;;;;;4.88;2.42;;;;;;;;;;5003110;28;20755;-72
2022/10/09 10:28:58;;;;;;;6.72;2.47;;;;;;;;;;5034045;28;20694;-72
2022/10/09 10:31:42;;;;;;;7.95;3.33;;;;;;;;;;5015621;28;20174;-72
2022/10/09 10:34:14;;;;;;;5.90;2.58;;;;;;;;;;5033047;28;20269;-72
2022/10/09 10:36:39;;;;;;;4.80;2.38;;;;;;;;;;5033640;28;20185;-72
2022/10/09 10:39:11;;;;;;;5.90;2.90;;;;;;;;;;5033740;28;20170;-72
2022/10/09 10:41:39;;;;;;;4.93;2.70;;;;;;;;;;5033364;28;20560;-72
2022/10/09 10:44:19;;;;;;;6.05;2.42;;;;;;;;;;5033672;28;20206;-72
2022/10/09 10:46:55;;;;;;;4.90;3.13;;;;;;;;;;5032193;28;20652;-72
2022/10/09 10:49:21;;;;;;;6.40;3.38;;;;;;;;;;5033687;28;20602;-72
2022/10/09 10:51:52;;;;;;;5.13;2.65;;;;;;;;;;5032123;28;20200;-72
2022/10/09 10:54:17;;;;;;;4.97;3.33;;;;;;;;;;5033144;28;20273;-72
2022/10/09 10:56:55;;;;;;;10.65;3.70;;;;;;;;;;5029895;28;20309;-72
2022/10/09 10:59:28;;;;;;;7.03;3.78;;;;;;;;;;5026918;28;20182;-72
2022/10/09 11:01:53;;;;;;;7.07;3.20;;;;;;;;;;5026953;28;20186;-72
2022/10/09 11:04:30;;;;;;;5.18;2.85;;;;;;;;;;5032952;28;20563;-72
2022/10/09 11:07:14;;;;;;;5.55;2.85;;;;;;;;;;5033009;28;20395;-72
2022/10/09 11:09:48;;;;;;;3.70;2.38;;;;;;;;;;5032364;28;20261;-73
2022/10/09 11:12:32;;;;;;;7.55;3.38;;;;;;;;;;5032412;28;20703;-72
2022/10/09 11:15:10;;;;;;;5.30;2.88;;;;;;;;;;5033271;28;20179;-72
2022/10/09 11:17:45;;;;;;;5.53;2.58;;;;;;;;;;5033183;28;20284;-72
2022/10/09 11:20:18;;;;;;;4.63;2.85;;;;;;;;;;5033109;28;20618;-72
2022/10/09 11:22:43;;;;;;;4.65;2.83;;;;;;;;;;5032154;28;20199;-72
2022/10/09 11:25:18;;;;;;;5.57;3.08;;;;;;;;;;5014791;28;20201;-72
2022/10/09 11:27:49;;;;;;;5.43;3.20;;;;;;;;;;5032941;28;20169;-72
2022/10/09 11:30:16;;;;;;;7.55;3.38;;;;;;;;;;5032894;28;20170;-72
2022/10/09 11:32:41;;;;;;;6.00;2.95;;;;;;;;;;5032443;28;20194;-72
2022/10/09 11:35:16;;;;;;;5.93;3.00;;;;;;;;;;5032745;28;20193;-72
2022/10/09 11:37:42;;;;;;;6.35;3.35;;;;;;;;;;5013879;28;20829;-72
2022/10/09 11:40:16;;;;;;;7.85;2.95;;;;;;;;;;5014735;28;20201;-72
2022/10/09 11:42:44;;;;;;;4.47;2.53;;;;;;;;;;5031929;28;20276;-72
2022/10/09 11:45:20;;;;;;;5.60;2.97;;;;;;;;;;5032188;28;20577;-72
2022/10/09 11:47:53;;;;;;;3.17;2.42;;;;;;;;;;5012796;28;20175;-72
2022/10/09 11:50:56;;;;;;;5.65;2.58;;;;;;;;;;5012608;28;20167;-72
2022/10/09 11:53:23;;;;;;;6.00;3.05;;;;;;;;;;4951448;29;20691;-72
2022/10/09 11:55:59;;;;;;;5.72;3.78;;;;;;;;;;4951874;29;20554;-72
2022/10/09 11:58:24;;;;;;;5.72;2.35;;;;;;;;;;4992503;28;20570;-72
2022/10/09 12:00:52;;;;;;;7.10;2.47;;;;;;;;;;5023972;28;20261;-72
2022/10/09 12:03:34;;;;;;;4.68;2.05;;;;;;;;;;5031828;28;20190;-72
2022/10/09 12:06:05;;;;;;;6.80;2.83;;;;;;;;;;5031876;28;20439;-72
2022/10/09 12:08:31;;;;;;;4.63;2.63;;;;;;;;;;5031961;28;20174;-72
2022/10/09 12:10:57;;;;;;;3.90;2.30;;;;;;;;;;5031903;28;20174;-72
2022/10/09 12:13:38;;;;;;;5.70;2.35;;;;;;;;;;5030380;28;20206;-72
2022/10/09 12:16:04;;;;;;;5.53;2.55;;;;;;;;;;5032059;28;20181;-72
2022/10/09 12:18:31;;;;;;;6.78;2.42;;;;;;;;;;5032235;28;20170;-72
2022/10/09 12:20:57;;;;;;;5.05;2.60;;;;;;;;;;5031720;28;20198;-72
2022/10/09 12:23:25;;;;;;;5.53;1.70;;;;;;;;;;5031624;28;20186;-72
2022/10/09 12:25:52;;;;;;;5.55;2.67;;;;;;;;;;5031060;28;20186;-72
2022/10/09 12:28:36;;;;;;;2.78;1.67;;;;;;;;;;5031606;28;20177;-73
2022/10/09 12:31:03;;;;;;;4.30;1.90;;;;;;;;;;5031398;28;20174;-72
2022/10/09 12:33:33;;;;;;;5.05;2.03;;;;;;;;;;5031680;28;20707;-72
2022/10/09 12:36:02;;;;;;;5.15;2.03;;;;;;;;;;5031779;28;20663;-72
2022/10/09 12:38:30;;;;;;;5.05;1.67;;;;;;;;;;5031543;28;20639;-72
2022/10/09 12:40:57;;;;;;;5.10;1.63;;;;;;;;;;5030116;28;20170;-72
2022/10/09 12:43:23;;;;;;;3.60;1.80;;;;;;;;;;5030388;28;20206;-72
2022/10/09 12:45:50;;;;;;;4.10;1.55;;;;;;;;;;5030822;28;20652;-72
2022/10/09 12:48:17;;;;;;;2.33;1.58;;;;;;;;;;5031338;28;20181;-72
2022/10/09 12:50:43;;;;;;;2.90;1.63;;;;;;;;;;5013601;28;20170;-72
2022/10/09 12:53:12;;;;;;;3.22;1.60;;;;;;;;;;5031416;28;20197;-72
2022/10/09 12:55:54;;;;;;;4.05;1.70;;;;;;;;;;5031510;28;20174;-72
2022/10/09 12:58:19;;;;;;;3.55;1.50;;;;;;;;;;5031305;28;20192;-72
2022/10/09 13:00:45;;;;;;;4.53;1.83;;;;;;;;;;5031178;28;20643;-72
2022/10/09 13:03:22;;;;;;;3.72;1.70;;;;;;;;;;5031103;28;20868;-72
2022/10/09 13:05:47;;;;;;;3.42;1.67;;;;;;;;;;5013705;28;20321;-72
2022/10/09 13:08:26;;;;;;;5.03;1.75;;;;;;;;;;5031067;28;20166;-72
2022/10/09 13:10:52;;;;;;;3.22;1.65;;;;;;;;;;5031143;28;20186;-72
2022/10/09 13:13:20;;;;;;;6.13;2.08;;;;;;;;;;5031142;28;20186;-72
2022/10/09 13:15:45;;;;;;;4.82;1.90;;;;;;;;;;5031683;28;20274;-72
2022/10/09 13:18:23;;;;;;;3.85;1.75;;;;;;;;;;5031428;28;20667;-72
2022/10/09 13:21:02;;;;;;;4.53;1.65;;;;;;;;;;5034734;28;20178;-72
2022/10/09 13:23:32;;;;;;;4.20;1.67;;;;;;;;;;5017294;28;20198;-72
2022/10/09 13:25:58;;;;;;;5.35;1.80;;;;;;;;;;5035485;28;20179;-72
2022/10/09 13:28:23;;;;;;;3.85;1.65;;;;;;;;;;5017304;28;20166;-72
2022/10/09 13:30:48;;;;;;;3.65;1.60;;;;;;;;;;5034774;28;20662;-72
2022/10/09 13:33:14;;;;;;;2.75;1.50;;;;;;;;;;5034812;28;20186;-72
2022/10/09 13:35:40;;;;;;;3.05;1.73;;;;;;;;;;5034803;28;20177;-72
2022/10/09 13:38:05;;;;;;;5.20;1.80;;;;;;;;;;5034704;28;20262;-72
2022/10/09 13:40:30;;;;;;;4.95;1.63;;;;;;;;;;5034889;28;20170;-72
2022/10/09 13:42:58;;;;;;;5.32;1.35;;;;;;;;;;5034601;28;20636;-72
2022/10/09 13:45:23;;;;;;;3.83;1.30;;;;;;;;;;5034110;28;20245;-72
2022/10/09 13:47:49;;;;;;;4.00;2.10;;;;;;;;;;5034709;28;20660;-71
2022/10/09 13:50:14;;;;;;;3.33;1.80;;;;;;;;;;5034598;28;20388;-72
2022/10/09 13:52:39;;;;;;;4.32;1.70;;;;;;;;;;5034128;28;20423;-72
2022/10/09 13:55:05;;;;;;;4.25;1.67;;;;;;;;;;5034629;28;20171;-72
2022/10/09 13:57:30;;;;;;;3.08;1.70;;;;;;;;;;5034537;28;20205;-72
2022/10/09 13:59:56;;;;;;;2.97;1.48;;;;;;;;;;5034548;28;20195;-72
2022/10/09 14:02:21;;;;;;;4.50;2.67;;;;;;;;;;5033996;28;20179;-72
2022/10/09 14:04:46;;;;;;;2.35;1.67;;;;;;;;;;5034348;28;20193;-71
2022/10/09 14:07:11;;;;;;;5.03;1.57;;;;;;;;;;5034226;28;20206;-71
2022/10/09 14:09:36;;;;;;;3.08;1.70;;;;;;;;;;5033964;28;20391;-71
2022/10/09 14:12:02;;;;;;;10.90;2.63;;;;;;;;;;5034209;28;20174;-71
2022/10/09 14:14:27;;;;;;;3.72;1.48;;;;;;;;;;5033961;28;20194;-71
2022/10/09 14:16:52;;;;;;;6.57;2.03;;;;;;;;;;5034170;28;20580;-71
2022/10/09 14:19:17;;;;;;;3.92;1.70;;;;;;;;;;5034024;28;20443;-71
2022/10/09 14:21:43;;;;;;;3.63;1.75;;;;;;;;;;5033844;28;20405;-71
2022/10/09 14:24:09;;;;;;;2.45;1.55;;;;;;;;;;5033600;28;20684;-72
2022/10/09 14:26:34;;;;;;;5.28;1.90;;;;;;;;;;5034049;28;20192;-72
2022/10/09 14:29:02;;;;;;;2.78;1.67;;;;;;;;;;5016401;28;20491;-72
2022/10/09 14:31:27;;;;;;;2.75;1.67;;;;;;;;;;5033866;28;20162;-72
2022/10/09 14:33:54;;;;;;;6.47;1.67;;;;;;;;;;5016046;28;20198;-72
2022/10/09 14:36:20;;;;;;;4.32;1.73;;;;;;;;;;5034194;28;20257;-72
2022/10/09 14:38:45;;;;;;;3.28;1.38;;;;;;;;;;5015865;28;20265;-71
2022/10/09 14:41:12;;;;;;;4.30;1.48;;;;;;;;;;5033345;28;20253;-71
2022/10/09 14:43:38;;;;;;;4.32;1.85;;;;;;;;;;5033576;28;20745;-72